Pagrindinis puslapis
METAR-TAF:

METAR-TAF

Oro uostai :

Kerteh, Malaizija

platuma: 04-32-15N, ilguma: 103-25-36E, Aukštis: 5 m

Dabartinis oras

Ataskaita buvo paskelbta 33 minutes, ne 20:00 UTC
Ramus vėjas
Temperatūra 25°C
Drėgmė 100%
Slėgis 1009 hPa

METAR: WMKE 202000Z AUTO 00000KT //// // 25/25 Q1009

Laikas: 04:33 (20:33 UTC)

Prognozė

Ataskaita buvo paskelbta 3 valandos ir 33 minutes, ne 17:00 UTC
Prognozė galioja nuo 20 metu 18 UTC su 21 metu 18 UTC
Vėjas 7 kt iš Pietų
Matomumas: 8000 m
Mažai debesys ne aukštis 1400 ft
Tapsmas
nuo 21 metu 02 UTC su 21 metu 04 UTC
Matomumas: 5000 m
Mažai debesys ne aukštis 1500 ft
migla

TAF: WMKE 201700Z 2018/2118 18007KT 8000 FEW014 BECMG 2102/2104 5000 HZ FEW015

Orai ataskaitas ir orų prognozės (METAR, TAF).

turimą stotys yra geltonos ir raudonos taškus žemėlapyje.

Perkelti pele per norėdami pamatyti stoties vardą.

Tada spustelėkite, norėdami matyti oro stebėjimo ir prognozės.

Norėdami pakeisti žemėlapį: spustelėkite ant žalios mygtukų su juodo kryžiaus žemyn,; žalią mygtuką su brūkšneliu, jei norite nutolinti; arba žalių rodyklių gretimoms žemėlapius.


METAR-TAF: